Terminal Aerodrome Forecast
Issued by NWS

Home | Current Version | Previous Version | Text Only | Print | Product List | Glossary On
Versions: 1 2 3 4 5 6 7 8 9 10 11 12 13 14 15 16 17 18 19 20 21 22
000
FTUS46 KPDT 271300 AAA
TAFPSC
TAF AMD
KPSC 271350Z 2714/2812 14003KT 5SM BR OVC004
      TEMPO 2715/2717 3/4SM BR OVC002
     FM271900 32003KT 3SM BR BKN005 OVC015
     FM280000 24005KT 6SM BR BKN015 OVC060
     FM280300 26006KT P6SM SCT015 OVC040=

USA.gov is the U.S. government's official web portal to all federal, state and local government web resources and services.